PWSweather.com
Personal Weather Stations
Station Observations
2450ARBOR
Round Rock, TX 78681

Round Rock, TX 78681

Lat: 30.535239, Lon: -97.728137

Elevation: 800

Station Type:

Latest ConditionsUpdated 8:15:00 AM CST Thursday, Nov 14, 2019
Currently Today's Max Today's Min Today's Average
Temperature 38.8°F3.8°C 40.8°F4.9°C 38.7°F3.7°C 40.0°F4.4°C
Dew Point 38.3°F3.5°C 38.3°F3.5°C 32.5°F0.3°C 35.3°F1.8°C
Winds Calm Calm 2.0 mph -3.2 kmh - - 0.1 mph 0.2 kmh
Wind Gusts 2.0 mph3.2 kmh 3.0 mph4.8 kmh - -
Humidity 98% 98% 74% 83%
Pressure 29.39 in995.3 mb 29.39 in995.3 mb 29.28 in991.5 mb -
Precipitation - 0.03 in0.8 mm - -
Hour Temp Dew Point Humidity Winds Wind Gusts Pressure Precip Precip Rate Daily Precip Total
08:15 AM 38.8°F3.8°C 38.3°F3.5°C 98% Calm Calm 2.0 mph3.2 kmh 29.39 in995.3 mb 0.01 in0.3 mm 0.00 in0.0 mm 0.03 in0.8 mm
08:10 AM 38.8°F3.8°C 38.3°F3.5°C 98% Calm Calm 2.0 mph3.2 kmh 29.39 in995.3 mb 0.01 in0.3 mm 0.00 in0.0 mm 0.03 in0.8 mm
08:05 AM 38.8°F3.8°C 38.0°F3.3°C 97% Calm Calm -- 29.39 in995.3 mb 0.01 in0.3 mm 0.00 in0.0 mm 0.03 in0.8 mm
08:00 AM 38.7°F3.7°C 37.9°F3.3°C 97% Calm Calm 1.0 mph1.6 kmh 29.39 in995.3 mb 0.01 in0.3 mm 0.00 in0.0 mm 0.03 in0.8 mm
07:55 AM 38.7°F3.7°C 37.9°F3.3°C 97% Calm Calm 1.0 mph1.6 kmh 29.39 in995.3 mb 0.02 in0.5 mm 0.00 in0.0 mm 0.03 in0.8 mm
07:50 AM 38.7°F3.7°C 37.9°F3.3°C 97% Calm Calm -- 29.39 in995.3 mb 0.02 in0.5 mm 0.00 in0.0 mm 0.03 in0.8 mm
07:45 AM 38.7°F3.7°C 37.9°F3.3°C 97% Calm Calm -- 29.38 in994.9 mb 0.02 in0.5 mm 0.00 in0.0 mm 0.03 in0.8 mm
07:40 AM 38.7°F3.7°C 37.9°F3.3°C 97% Calm Calm -- 29.38 in994.9 mb 0.02 in0.5 mm 0.00 in0.0 mm 0.03 in0.8 mm
07:35 AM 38.7°F3.7°C 37.9°F3.3°C 97% Calm Calm 1.0 mph1.6 kmh 29.38 in994.9 mb 0.02 in0.5 mm 0.12 in3.0 mm 0.03 in0.8 mm
07:30 AM 38.7°F3.7°C 37.9°F3.3°C 97% Calm Calm -- 29.38 in994.9 mb 0.01 in0.3 mm 0.00 in0.0 mm 0.02 in0.5 mm
07:25 AM 38.7°F3.7°C 37.9°F3.3°C 97% Calm Calm 2.0 mph3.2 kmh 29.38 in994.9 mb 0.01 in0.3 mm 0.00 in0.0 mm 0.02 in0.5 mm
07:20 AM 38.8°F3.8°C 38.0°F3.3°C 97% 1.0 mph SE1.6 kmh SE 1.0 mph1.6 kmh 29.38 in994.9 mb 0.01 in0.3 mm 0.00 in0.0 mm 0.02 in0.5 mm
07:15 AM 38.8°F3.8°C 38.0°F3.3°C 97% 1.0 mph SE1.6 kmh SE 2.0 mph3.2 kmh 29.37 in994.6 mb 0.02 in0.5 mm 0.00 in0.0 mm 0.02 in0.5 mm
07:10 AM 38.8°F3.8°C 38.0°F3.3°C 97% Calm Calm 1.0 mph1.6 kmh 29.37 in994.6 mb 0.02 in0.5 mm 0.12 in3.0 mm 0.02 in0.5 mm
07:05 AM 38.8°F3.8°C 37.8°F3.2°C 96% Calm Calm 1.0 mph1.6 kmh 29.37 in994.6 mb 0.01 in0.3 mm 0.00 in0.0 mm 0.01 in0.3 mm
07:00 AM 39.0°F3.9°C 38.0°F3.3°C 96% Calm Calm -- 29.36 in994.2 mb 0.01 in0.3 mm 0.00 in0.0 mm 0.01 in0.3 mm
06:55 AM 39.0°F3.9°C 38.0°F3.3°C 96% Calm Calm -- 29.36 in994.2 mb 0.01 in0.3 mm 0.00 in0.0 mm 0.01 in0.3 mm
06:50 AM 39.2°F4.0°C 38.2°F3.4°C 96% Calm Calm -- 29.36 in994.2 mb 0.01 in0.3 mm 0.00 in0.0 mm 0.01 in0.3 mm
06:45 AM 39.2°F4.0°C 38.2°F3.4°C 96% Calm Calm -- 29.37 in994.6 mb 0.01 in0.3 mm 0.00 in0.0 mm 0.01 in0.3 mm
06:40 AM 39.2°F4.0°C 38.2°F3.4°C 96% Calm Calm -- 29.37 in994.6 mb 0.01 in0.3 mm 0.00 in0.0 mm 0.01 in0.3 mm
06:35 AM 39.2°F4.0°C 37.9°F3.3°C 95% Calm Calm -- 29.37 in994.6 mb 0.01 in0.3 mm 0.00 in0.0 mm 0.01 in0.3 mm
06:30 AM 39.2°F4.0°C 37.9°F3.3°C 95% Calm Calm -- 29.37 in994.6 mb 0.01 in0.3 mm 0.12 in3.0 mm 0.01 in0.3 mm
06:25 AM 39.2°F4.0°C 37.9°F3.3°C 95% Calm Calm -- 29.36 in994.2 mb 0.00 in0.0 mm 0.00 in0.0 mm 0.00 in0.0 mm
06:20 AM 39.2°F4.0°C 37.9°F3.3°C 95% Calm Calm -- 29.36 in994.2 mb 0.00 in0.0 mm 0.00 in0.0 mm 0.00 in0.0 mm
06:15 AM 39.4°F4.1°C 37.8°F3.2°C 94% Calm Calm -- 29.35 in993.9 mb 0.00 in0.0 mm 0.00 in0.0 mm 0.00 in0.0 mm
06:10 AM 39.4°F4.1°C 37.8°F3.2°C 94% Calm Calm -- 29.35 in993.9 mb 0.00 in0.0 mm 0.00 in0.0 mm 0.00 in0.0 mm
06:05 AM 39.2°F4.0°C 37.3°F2.9°C 93% Calm Calm -- 29.34 in993.6 mb 0.00 in0.0 mm 0.00 in0.0 mm 0.00 in0.0 mm
06:00 AM 39.2°F4.0°C 37.3°F2.9°C 93% Calm Calm -- 29.34 in993.6 mb 0.00 in0.0 mm 0.00 in0.0 mm 0.00 in0.0 mm
05:55 AM 39.4°F4.1°C 37.3°F2.9°C 92% Calm Calm -- 29.33 in993.2 mb 0.00 in0.0 mm 0.00 in0.0 mm 0.00 in0.0 mm
05:50 AM 39.6°F4.2°C 37.5°F3.1°C 92% Calm Calm -- 29.33 in993.2 mb 0.00 in0.0 mm 0.00 in0.0 mm 0.00 in0.0 mm
05:45 AM 39.7°F4.3°C 37.3°F2.9°C 91% Calm Calm -- 29.32 in992.9 mb 0.00 in0.0 mm 0.00 in0.0 mm 0.00 in0.0 mm
05:40 AM 39.7°F4.3°C 37.3°F2.9°C 91% Calm Calm -- 29.32 in992.9 mb 0.00 in0.0 mm 0.00 in0.0 mm 0.00 in0.0 mm
05:35 AM 39.9°F4.4°C 37.2°F2.9°C 90% Calm Calm -- 29.32 in992.9 mb 0.00 in0.0 mm 0.00 in0.0 mm 0.00 in0.0 mm
05:30 AM 40.1°F4.5°C 37.1°F2.8°C 89% Calm Calm -- 29.32 in992.9 mb 0.00 in0.0 mm 0.00 in0.0 mm 0.00 in0.0 mm
05:25 AM 40.3°F4.6°C 37.0°F2.8°C 88% Calm Calm -- 29.32 in992.9 mb 0.00 in0.0 mm 0.00 in0.0 mm 0.00 in0.0 mm
05:20 AM 40.3°F4.6°C 36.5°F2.5°C 86% Calm Calm -- 29.32 in992.9 mb 0.00 in0.0 mm 0.00 in0.0 mm 0.00 in0.0 mm
05:15 AM 40.5°F4.7°C 36.1°F2.3°C 84% Calm Calm -- 29.32 in992.9 mb 0.00 in0.0 mm 0.00 in0.0 mm 0.00 in0.0 mm
05:10 AM 40.5°F4.7°C 36.1°F2.3°C 84% Calm Calm -- 29.32 in992.9 mb 0.00 in0.0 mm 0.00 in0.0 mm 0.00 in0.0 mm
05:05 AM 40.5°F4.7°C 35.8°F2.1°C 83% Calm Calm -- 29.32 in992.9 mb 0.00 in0.0 mm 0.00 in0.0 mm 0.00 in0.0 mm
05:00 AM 40.6°F4.8°C 35.8°F2.1°C 83% Calm Calm -- 29.32 in992.9 mb 0.00 in0.0 mm 0.00 in0.0 mm 0.00 in0.0 mm
04:55 AM 40.6°F4.8°C 35.8°F2.1°C 83% Calm Calm -- 29.32 in992.9 mb 0.00 in0.0 mm 0.00 in0.0 mm 0.00 in0.0 mm
04:50 AM 40.6°F4.8°C 35.5°F1.9°C 82% Calm Calm -- 29.31 in992.6 mb 0.00 in0.0 mm 0.00 in0.0 mm 0.00 in0.0 mm
04:45 AM 40.6°F4.8°C 35.2°F1.8°C 81% Calm Calm 2.0 mph3.2 kmh 29.31 in992.6 mb 0.00 in0.0 mm 0.00 in0.0 mm 0.00 in0.0 mm
04:40 AM 40.6°F4.8°C 35.2°F1.8°C 81% Calm Calm 1.0 mph1.6 kmh 29.31 in992.6 mb 0.00 in0.0 mm 0.00 in0.0 mm 0.00 in0.0 mm
04:35 AM 40.6°F4.8°C 35.2°F1.8°C 81% 1.0 mph ESE1.6 kmh ESE 3.0 mph4.8 kmh 29.31 in992.6 mb 0.00 in0.0 mm 0.00 in0.0 mm 0.00 in0.0 mm
04:30 AM 40.8°F4.9°C 35.1°F1.7°C 80% Calm Calm 1.0 mph1.6 kmh 29.30 in992.2 mb 0.00 in0.0 mm 0.00 in0.0 mm 0.00 in0.0 mm
04:25 AM 40.8°F4.9°C 34.8°F1.6°C 79% Calm Calm 2.0 mph3.2 kmh 29.30 in992.2 mb 0.00 in0.0 mm 0.00 in0.0 mm 0.00 in0.0 mm
04:20 AM 40.8°F4.9°C 34.8°F1.6°C 79% Calm Calm -- 29.30 in992.2 mb 0.00 in0.0 mm 0.00 in0.0 mm 0.00 in0.0 mm
04:15 AM 40.8°F4.9°C 34.5°F1.4°C 78% Calm Calm -- 29.30 in992.2 mb 0.00 in0.0 mm 0.00 in0.0 mm 0.00 in0.0 mm
04:11 AM 40.8°F4.9°C 34.5°F1.4°C 78% Calm Calm -- 29.30 in992.2 mb 0.00 in0.0 mm 0.00 in0.0 mm 0.00 in0.0 mm
04:05 AM 40.8°F4.9°C 34.5°F1.4°C 78% Calm Calm -- 29.30 in992.2 mb 0.00 in0.0 mm 0.00 in0.0 mm 0.00 in0.0 mm
04:00 AM 40.8°F4.9°C 34.5°F1.4°C 78% Calm Calm -- 29.30 in992.2 mb 0.00 in0.0 mm 0.00 in0.0 mm 0.00 in0.0 mm
03:55 AM 40.8°F4.9°C 34.5°F1.4°C 78% Calm Calm -- 29.30 in992.2 mb 0.00 in0.0 mm 0.00 in0.0 mm 0.00 in0.0 mm
03:50 AM 40.8°F4.9°C 34.2°F1.2°C 77% Calm Calm -- 29.30 in992.2 mb 0.00 in0.0 mm 0.00 in0.0 mm 0.00 in0.0 mm
03:45 AM 40.8°F4.9°C 34.2°F1.2°C 77% Calm Calm -- 29.30 in992.2 mb 0.00 in0.0 mm 0.00 in0.0 mm 0.00 in0.0 mm
03:40 AM 40.8°F4.9°C 33.8°F1.0°C 76% Calm Calm -- 29.30 in992.2 mb 0.00 in0.0 mm 0.00 in0.0 mm 0.00 in0.0 mm
03:35 AM 40.8°F4.9°C 34.5°F1.4°C 78% Calm Calm -- 29.30 in992.2 mb 0.00 in0.0 mm 0.00 in0.0 mm 0.00 in0.0 mm
03:30 AM 40.8°F4.9°C 34.5°F1.4°C 78% Calm Calm -- 29.30 in992.2 mb 0.00 in0.0 mm 0.00 in0.0 mm 0.00 in0.0 mm
03:25 AM 40.8°F4.9°C 34.2°F1.2°C 77% Calm Calm -- 29.30 in992.2 mb 0.00 in0.0 mm 0.00 in0.0 mm 0.00 in0.0 mm
03:20 AM 40.8°F4.9°C 34.2°F1.2°C 77% Calm Calm -- 29.29 in991.9 mb 0.00 in0.0 mm 0.00 in0.0 mm 0.00 in0.0 mm
03:15 AM 40.8°F4.9°C 33.8°F1.0°C 76% Calm Calm -- 29.30 in992.2 mb 0.00 in0.0 mm 0.00 in0.0 mm 0.00 in0.0 mm
03:10 AM 40.8°F4.9°C 33.8°F1.0°C 76% Calm Calm -- 29.29 in991.9 mb 0.00 in0.0 mm 0.00 in0.0 mm 0.00 in0.0 mm
03:05 AM 40.8°F4.9°C 33.8°F1.0°C 76% Calm Calm -- 29.29 in991.9 mb 0.00 in0.0 mm 0.00 in0.0 mm 0.00 in0.0 mm
03:00 AM 40.6°F4.8°C 33.6°F0.9°C 76% Calm Calm -- 29.29 in991.9 mb 0.00 in0.0 mm 0.00 in0.0 mm 0.00 in0.0 mm
02:55 AM 40.6°F4.8°C 33.6°F0.9°C 76% Calm Calm -- 29.29 in991.9 mb 0.00 in0.0 mm 0.00 in0.0 mm 0.00 in0.0 mm
02:50 AM 40.5°F4.7°C 33.5°F0.8°C 76% Calm Calm -- 29.29 in991.9 mb 0.00 in0.0 mm 0.00 in0.0 mm 0.00 in0.0 mm
02:45 AM 40.5°F4.7°C 33.5°F0.8°C 76% Calm Calm -- 29.29 in991.9 mb 0.00 in0.0 mm 0.00 in0.0 mm 0.00 in0.0 mm
02:40 AM 40.5°F4.7°C 33.5°F0.8°C 76% Calm Calm -- 29.29 in991.9 mb 0.00 in0.0 mm 0.00 in0.0 mm 0.00 in0.0 mm
02:35 AM 40.5°F4.7°C 33.5°F0.8°C 76% Calm Calm -- 29.29 in991.9 mb 0.00 in0.0 mm 0.00 in0.0 mm 0.00 in0.0 mm
02:30 AM 40.5°F4.7°C 33.5°F0.8°C 76% Calm Calm -- 29.29 in991.9 mb 0.00 in0.0 mm 0.00 in0.0 mm 0.00 in0.0 mm
02:25 AM 40.5°F4.7°C 33.5°F0.8°C 76% Calm Calm -- 29.29 in991.9 mb 0.00 in0.0 mm 0.00 in0.0 mm 0.00 in0.0 mm
02:20 AM 40.5°F4.7°C 33.2°F0.7°C 75% Calm Calm -- 29.29 in991.9 mb 0.00 in0.0 mm 0.00 in0.0 mm 0.00 in0.0 mm
02:15 AM 40.5°F4.7°C 33.2°F0.7°C 75% 2.0 mph E3.2 kmh E 2.0 mph3.2 kmh 29.29 in991.9 mb 0.00 in0.0 mm 0.00 in0.0 mm 0.00 in0.0 mm
02:10 AM 40.5°F4.7°C 33.2°F0.7°C 75% 2.0 mph E3.2 kmh E 2.0 mph3.2 kmh 29.29 in991.9 mb 0.00 in0.0 mm 0.00 in0.0 mm 0.00 in0.0 mm
02:05 AM 40.5°F4.7°C 33.2°F0.7°C 75% Calm Calm -- 29.29 in991.9 mb 0.00 in0.0 mm 0.00 in0.0 mm 0.00 in0.0 mm
02:00 AM 40.5°F4.7°C 33.5°F0.8°C 76% 1.0 mph SSE1.6 kmh SSE 2.0 mph3.2 kmh 29.29 in991.9 mb 0.00 in0.0 mm 0.00 in0.0 mm 0.00 in0.0 mm
01:55 AM 40.5°F4.7°C 33.5°F0.8°C 76% Calm Calm -- 29.29 in991.9 mb 0.00 in0.0 mm 0.00 in0.0 mm 0.00 in0.0 mm
01:50 AM 40.5°F4.7°C 33.5°F0.8°C 76% Calm Calm 1.0 mph1.6 kmh 29.30 in992.2 mb 0.00 in0.0 mm 0.00 in0.0 mm 0.00 in0.0 mm
01:45 AM 40.5°F4.7°C 33.5°F0.8°C 76% Calm Calm -- 29.30 in992.2 mb 0.00 in0.0 mm 0.00 in0.0 mm 0.00 in0.0 mm
01:40 AM 40.5°F4.7°C 33.5°F0.8°C 76% Calm Calm 1.0 mph1.6 kmh 29.30 in992.2 mb 0.00 in0.0 mm 0.00 in0.0 mm 0.00 in0.0 mm
01:35 AM 40.5°F4.7°C 33.5°F0.8°C 76% Calm Calm -- 29.29 in991.9 mb 0.00 in0.0 mm 0.00 in0.0 mm 0.00 in0.0 mm
01:30 AM 40.3°F4.6°C 33.3°F0.7°C 76% Calm Calm 2.0 mph3.2 kmh 29.29 in991.9 mb 0.00 in0.0 mm 0.00 in0.0 mm 0.00 in0.0 mm
01:25 AM 40.3°F4.6°C 33.3°F0.7°C 76% Calm Calm 1.0 mph1.6 kmh 29.29 in991.9 mb 0.00 in0.0 mm 0.00 in0.0 mm 0.00 in0.0 mm
01:20 AM 40.3°F4.6°C 33.0°F0.6°C 75% Calm Calm 1.0 mph1.6 kmh 29.29 in991.9 mb 0.00 in0.0 mm 0.00 in0.0 mm 0.00 in0.0 mm
01:15 AM 40.1°F4.5°C 32.8°F0.4°C 75% Calm Calm 2.0 mph3.2 kmh 29.28 in991.5 mb 0.00 in0.0 mm 0.00 in0.0 mm 0.00 in0.0 mm
01:10 AM 40.1°F4.5°C 33.2°F0.7°C 76% Calm Calm 2.0 mph3.2 kmh 29.28 in991.5 mb 0.00 in0.0 mm 0.00 in0.0 mm 0.00 in0.0 mm
01:05 AM 40.1°F4.5°C 33.2°F0.7°C 76% Calm Calm 2.0 mph3.2 kmh 29.28 in991.5 mb 0.00 in0.0 mm 0.00 in0.0 mm 0.00 in0.0 mm
01:00 AM 40.1°F4.5°C 33.2°F0.7°C 76% 2.0 mph SE3.2 kmh SE 2.0 mph3.2 kmh 29.29 in991.9 mb 0.00 in0.0 mm 0.00 in0.0 mm 0.00 in0.0 mm
12:55 AM 40.1°F4.5°C 33.2°F0.7°C 76% Calm Calm 1.0 mph1.6 kmh 29.29 in991.9 mb 0.00 in0.0 mm 0.00 in0.0 mm 0.00 in0.0 mm
12:50 AM 40.1°F4.5°C 33.2°F0.7°C 76% Calm Calm 1.0 mph1.6 kmh 29.29 in991.9 mb 0.00 in0.0 mm 0.00 in0.0 mm 0.00 in0.0 mm
12:45 AM 40.1°F4.5°C 32.8°F0.4°C 75% Calm Calm -- 29.29 in991.9 mb 0.00 in0.0 mm 0.00 in0.0 mm 0.00 in0.0 mm
12:40 AM 40.1°F4.5°C 32.8°F0.4°C 75% Calm Calm -- 29.29 in991.9 mb 0.00 in0.0 mm 0.00 in0.0 mm 0.00 in0.0 mm
12:35 AM 40.1°F4.5°C 32.8°F0.4°C 75% Calm Calm 2.0 mph3.2 kmh 29.30 in992.2 mb 0.00 in0.0 mm 0.00 in0.0 mm 0.00 in0.0 mm
12:30 AM 40.1°F4.5°C 32.8°F0.4°C 75% Calm Calm -- 29.30 in992.2 mb 0.00 in0.0 mm 0.00 in0.0 mm 0.00 in0.0 mm
12:25 AM 40.1°F4.5°C 32.8°F0.4°C 75% Calm Calm 1.0 mph1.6 kmh 29.30 in992.2 mb 0.00 in0.0 mm 0.00 in0.0 mm 0.00 in0.0 mm
12:20 AM 40.1°F4.5°C 32.8°F0.4°C 75% Calm Calm 1.0 mph1.6 kmh 29.30 in992.2 mb 0.00 in0.0 mm 0.00 in0.0 mm 0.00 in0.0 mm
12:15 AM 40.1°F4.5°C 32.8°F0.4°C 75% Calm Calm -- 29.30 in992.2 mb 0.00 in0.0 mm 0.00 in0.0 mm 0.00 in0.0 mm
12:10 AM 40.1°F4.5°C 32.5°F0.3°C 74% Calm Calm -- 29.29 in991.9 mb 0.00 in0.0 mm 0.00 in0.0 mm 0.00 in0.0 mm
12:05 AM 40.1°F4.5°C 32.5°F0.3°C 74% Calm Calm -- 29.30 in992.2 mb 0.00 in0.0 mm 0.00 in0.0 mm 0.00 in0.0 mm
12:00 AM 40.1°F4.5°C 32.5°F0.3°C 74% Calm Calm -- 29.30 in992.2 mb 0.00 in0.0 mm 0.00 in0.0 mm 0.00 in0.0 mm